Kaiei Maru No.8 — 7JUD — position and weather

sailwx.info

Track history (hours):
 
Tides and Currents Weather Stations Pressure Air Temp Water Temp Dewpoint Dewpoint Depression Visibility Wind Speed Wind Dir Waves Ship Positions

Kaiei Maru No.8

Last reported at 2018-Jul-19 03:27 UTC. Time now 2018-Jul-20 06:54 UTC.
Position N 34°43' E 134°36'.

Length 71 m; draft 5 m.

Type: Cargo ship. MMSI: 431007299.

Date/timePositionNaut miles runAvg speedWind from/ knotsBaromVisibWave heightAir tempDewpointWater temp
2018-Jul-19 03:27N 34°43' E 134°36'  
2018-Jul-15 01:10N 34°21' E 134°23'210.9
2018-Jul-15 01:00N 34°20' E 134°25'2410.6
2018-Jul-14 22:45N 34°06' E 134°47'310.5
2018-Jul-14 22:30N 34°04' E 134°49'510.4
2018-Jul-14 21:59N 33°60' E 134°53'510.3
2018-Jul-14 21:28N 33°55' E 134°58'510.2
2018-Jul-14 21:00N 33°52' E 135°01'  
2018-Jul-11 06:18N 33°51' E 135°04'310.4
2018-Jul-11 05:58N 33°54' E 135°02'511.0
2018-Jul-11 05:30N 33°58' E 134°57'611.1
2018-Jul-11 04:55N 34°03' E 134°52'511.4
2018-Jul-11 04:30N 34°06' E 134°48'811.6
2018-Jul-11 03:48N 34°12' E 134°41'1111.6
2018-Jul-11 02:53N 34°18' E 134°31'511.9
2018-Jul-11 02:30N 34°19' E 134°26'  
Track history (hours):
 
Tides and Currents Weather Stations Pressure Air Temp Water Temp Dewpoint Dewpoint Depression Visibility Wind Speed Wind Dir Waves Ship Positions

Kaiei Maru No.8

Last reported at 2018-Jul-19 03:27 UTC. Time now 2018-Jul-20 06:54 UTC.
Position N 34°43' E 134°36'.

Length 71 m; draft 5 m.

Type: Cargo ship. MMSI: 431007299.

Date/timePositionNaut miles runAvg speedWind from/ knotsBaromVisibWave heightAir tempDewpointWater temp
2018-Jul-19 03:27N 34°43' E 134°36'  
2018-Jul-15 01:10N 34°21' E 134°23'210.9
2018-Jul-15 01:00N 34°20' E 134°25'2410.6
2018-Jul-14 22:45N 34°06' E 134°47'310.5
2018-Jul-14 22:30N 34°04' E 134°49'510.4
2018-Jul-14 21:59N 33°60' E 134°53'510.3
2018-Jul-14 21:28N 33°55' E 134°58'510.2
2018-Jul-14 21:00N 33°52' E 135°01'  
2018-Jul-11 06:18N 33°51' E 135°04'310.4
2018-Jul-11 05:58N 33°54' E 135°02'511.0
2018-Jul-11 05:30N 33°58' E 134°57'611.1
2018-Jul-11 04:55N 34°03' E 134°52'511.4
2018-Jul-11 04:30N 34°06' E 134°48'811.6
2018-Jul-11 03:48N 34°12' E 134°41'1111.6
2018-Jul-11 02:53N 34°18' E 134°31'511.9
2018-Jul-11 02:30N 34°19' E 134°26'  

Dump ship's entire track history